Great BritainFixed distance
Ultra-Trail Snowdonia - 50km
17 May2025
Distance
55km
Finishers
965760 men205 women
Winning time
5:33:22h
Median pace
4.81km/h
Pace distribution
965 finishers · 3.86–9.90 km/h · mean 5.00
Every finisher ran the same 55 km course, so these paces are directly comparable.
Histogram of finisher pace. 965 finishers ranged from 3.86 to 9.90 kilometres per hour, with a mean of 5.00 and a median of 4.81. The busiest band is 4.5 to 5.0 kilometres per hour, with 285 finishers.
Results
Ranks 501–550 of 965
| Rank | Runner | Time | Pace | Cat. | Placing |
|---|---|---|---|---|---|
| 501 | 11:29:22h | 4.79 | M23 | 413th M · 132nd M23 | |
| 502 | SMRC | 11:29:23h | 4.79 | M23 | 414th M · 133rd M23 |
| 503 | 42k Pro Team | 11:30:04h | 4.78 | M45 | 415th M · 58th M45 |
| 504 | Off the Beaten Trail | 11:30:06h | 4.78 | M45 | 416th M · 59th M45 |
| 505 | 11:30:23h | 4.78 | W40 | 89th F · 15th W40 | |
| 506 | OK Slavia | 11:30:32h | 4.78 | W23 | 90th F · 40th W23 |
| 507 | 11:30:36h | 4.78 | M35 | 417th M · 80th M35 | |
| 508 | 11:30:51h | 4.78 | M50 | 418th M · 33rd M50 | |
| 509 | Pines Outdoor Club | 11:30:56h | 4.78 | M23 | 419th M · 134th M23 |
| 510 | 11:31:01h | 4.78 | M40 | 420th M · 84th M40 | |
| 511 | Fulham RC | 11:31:19h | 4.77 | M23 | 421st M · 135th M23 |
| 512 | Fulham RC | 11:31:20h | 4.77 | W23 | 91st F · 41st W23 |
| 512 | 11:31:20h | 4.77 | M45 | 422nd M · 60th M45 | |
| 514 | 11:31:42h | 4.77 | M65 | 423rd M · 2nd M65 | |
| 515 | 11:31:44h | 4.77 | M23 | 424th M · 136th M23 | |
| 516 | 11:31:47h | 4.77 | M40 | 425th M · 85th M40 | |
| 517 | 11:31:59h | 4.77 | M23 | 426th M · 137th M23 | |
| 518 | Runconada / Pinoy Runn... | 11:32:44h | 4.76 | M23 | 427th M · 138th M23 |
| 519 | 11:33:18h | 4.76 | M40 | 428th M · 86th M40 | |
| 520 | 11:33:26h | 4.76 | M40 | 429th M · 87th M40 | |
| 521 | 11:33:43h | 4.76 | M35 | 430th M · 81st M35 | |
| 522 | 11:33:55h | 4.76 | M23 | 431st M · 139th M23 | |
| 523 | 11:34:03h | 4.75 | M23 | 432nd M · 140th M23 | |
| 524 | Náttúruhlaup | 11:34:53h | 4.75 | W55 | 92nd F · 4th W55 |
| 525 | 11:34:57h | 4.75 | M35 | 433rd M · 82nd M35 | |
| 526 | 11:35:56h | 4.74 | M35 | 434th M · 83rd M35 | |
| 527 | Burgess Hill Runners | 11:36:47h | 4.74 | M50 | 435th M · 34th M50 |
| 528 | 11:37:00h | 4.74 | M45 | 436th M · 61st M45 | |
| 529 | Grove Lane Runners | 11:37:27h | 4.73 | M23 | 437th M · 141st M23 |
| 530 | 11:37:36h | 4.73 | M23 | 438th M · 142nd M23 | |
| 531 | & Elements | 11:37:41h | 4.73 | M40 | 439th M · 88th M40 |
| 532 | 11:37:52h | 4.73 | M45 | 440th M · 62nd M45 | |
| 533 | 11:38:01h | 4.73 | M40 | 441st M · 89th M40 | |
| 534 | We Run Belfast | 11:38:15h | 4.73 | M23 | 442nd M · 143rd M23 |
| 535 | 11:38:58h | 4.72 | M23 | 443rd M · 144th M23 | |
| 535 | 11:38:58h | 4.72 | M23 | 443rd M · 144th M23 | |
| 537 | 11:39:09h | 4.72 | M23 | 445th M · 146th M23 | |
| 538 | 11:39:13h | 4.72 | M55 | 446th M · 18th M55 | |
| 539 | PRL | 11:39:26h | 4.72 | M40 | 447th M · 90th M40 |
| 540 | 11:39:27h | 4.72 | M45 | 448th M · 63rd M45 | |
| 541 | 11:39:51h | 4.71 | W23 | 93rd F · 42nd W23 | |
| 542 | 11:39:58h | 4.71 | M23 | 449th M · 147th M23 | |
| 543 | 11:40:45h | 4.71 | M23 | 450th M · 148th M23 | |
| 544 | Hamro RC | 11:40:54h | 4.71 | M23 | 451st M · 149th M23 |
| 545 | Strength & Conditionin... | 11:41:10h | 4.71 | M35 | 452nd M · 84th M35 |
| 546 | Kinetic Sports | 11:41:14h | 4.71 | W35 | 94th F · 17th W35 |
| 547 | 11:41:56h | 4.70 | M23 | 453rd M · 150th M23 | |
| 548 | 11:42:25h | 4.70 | M35 | 454th M · 85th M35 | |
| 549 | 11:43:19h | 4.69 | W23 | 95th F · 43rd W23 | |
| 550 | Eryri Harriers | 11:43:21h | 4.69 | M45 | 455th M · 64th M45 |
- 501413th M · 132nd M23Time11:29:22hPace4.79Cat.M23
- 502SMRC414th M · 133rd M23Time11:29:23hPace4.79Cat.M23
- 50342k Pro Team415th M · 58th M45Time11:30:04hPace4.78Cat.M45
- 504Off the Beaten Trail416th M · 59th M45Time11:30:06hPace4.78Cat.M45
- 50589th F · 15th W40Time11:30:23hPace4.78Cat.W40
- 506OK Slavia90th F · 40th W23Time11:30:32hPace4.78Cat.W23
- 507417th M · 80th M35Time11:30:36hPace4.78Cat.M35
- 508418th M · 33rd M50Time11:30:51hPace4.78Cat.M50
- 509Pines Outdoor Club419th M · 134th M23Time11:30:56hPace4.78Cat.M23
- 510420th M · 84th M40Time11:31:01hPace4.78Cat.M40
- 511Fulham RC421st M · 135th M23Time11:31:19hPace4.77Cat.M23
- 512Fulham RC91st F · 41st W23Time11:31:20hPace4.77Cat.W23
- 512422nd M · 60th M45Time11:31:20hPace4.77Cat.M45
- 514423rd M · 2nd M65Time11:31:42hPace4.77Cat.M65
- 515424th M · 136th M23Time11:31:44hPace4.77Cat.M23
- 516425th M · 85th M40Time11:31:47hPace4.77Cat.M40
- 517426th M · 137th M23Time11:31:59hPace4.77Cat.M23
- 518Runconada / Pinoy Runn...427th M · 138th M23Time11:32:44hPace4.76Cat.M23
- 519428th M · 86th M40Time11:33:18hPace4.76Cat.M40
- 520429th M · 87th M40Time11:33:26hPace4.76Cat.M40
- 521430th M · 81st M35Time11:33:43hPace4.76Cat.M35
- 522431st M · 139th M23Time11:33:55hPace4.76Cat.M23
- 523432nd M · 140th M23Time11:34:03hPace4.75Cat.M23
- 524Náttúruhlaup92nd F · 4th W55Time11:34:53hPace4.75Cat.W55
- 525433rd M · 82nd M35Time11:34:57hPace4.75Cat.M35
- 526434th M · 83rd M35Time11:35:56hPace4.74Cat.M35
- 527Burgess Hill Runners435th M · 34th M50Time11:36:47hPace4.74Cat.M50
- 528436th M · 61st M45Time11:37:00hPace4.74Cat.M45
- 529Grove Lane Runners437th M · 141st M23Time11:37:27hPace4.73Cat.M23
- 530438th M · 142nd M23Time11:37:36hPace4.73Cat.M23
- 531& Elements439th M · 88th M40Time11:37:41hPace4.73Cat.M40
- 532440th M · 62nd M45Time11:37:52hPace4.73Cat.M45
- 533441st M · 89th M40Time11:38:01hPace4.73Cat.M40
- 534We Run Belfast442nd M · 143rd M23Time11:38:15hPace4.73Cat.M23
- 535443rd M · 144th M23Time11:38:58hPace4.72Cat.M23
- 535443rd M · 144th M23Time11:38:58hPace4.72Cat.M23
- 537445th M · 146th M23Time11:39:09hPace4.72Cat.M23
- 538446th M · 18th M55Time11:39:13hPace4.72Cat.M55
- 539PRL447th M · 90th M40Time11:39:26hPace4.72Cat.M40
- 540448th M · 63rd M45Time11:39:27hPace4.72Cat.M45
- 54193rd F · 42nd W23Time11:39:51hPace4.71Cat.W23
- 542449th M · 147th M23Time11:39:58hPace4.71Cat.M23
- 543450th M · 148th M23Time11:40:45hPace4.71Cat.M23
- 544Hamro RC451st M · 149th M23Time11:40:54hPace4.71Cat.M23
- 545Strength & Conditionin...452nd M · 84th M35Time11:41:10hPace4.71Cat.M35
- 546Kinetic Sports94th F · 17th W35Time11:41:14hPace4.71Cat.W35
- 547453rd M · 150th M23Time11:41:56hPace4.70Cat.M23
- 548454th M · 85th M35Time11:42:25hPace4.70Cat.M35
- 54995th F · 43rd W23Time11:43:19hPace4.69Cat.W23
- 550Eryri Harriers455th M · 64th M45Time11:43:21hPace4.69Cat.M45
Showing ranks 501–550 of 965